createdAt,value
2018-07-24T00:02:04.764Z,20.30
2018-07-24T00:04:45.338Z,20.20
2018-07-24T00:07:26.138Z,20.20
2018-07-24T00:10:07.056Z,20.20
2018-07-24T00:12:47.913Z,20.20
2018-07-24T00:15:29.692Z,20.20
2018-07-24T00:18:10.479Z,20.20
2018-07-24T00:20:51.220Z,20.30
2018-07-24T00:23:32.254Z,20.30
2018-07-24T00:28:54.279Z,20.10
2018-07-24T00:31:36.352Z,20.10
2018-07-24T00:34:16.722Z,20.00
2018-07-24T00:36:58.144Z,20.00
2018-07-24T00:39:39.015Z,19.90
2018-07-24T00:45:00.629Z,19.80
2018-07-24T00:47:41.187Z,19.70
2018-07-24T00:50:22.071Z,19.60
2018-07-24T00:53:02.807Z,19.60
2018-07-24T00:55:44.329Z,19.60
2018-07-24T00:58:25.225Z,19.60
2018-07-24T01:01:06.139Z,19.60
2018-07-24T01:03:48.207Z,19.60
2018-07-24T01:06:29.491Z,19.50
2018-07-24T01:09:11.129Z,19.50
2018-07-24T01:11:51.633Z,19.50
2018-07-24T01:14:32.364Z,19.60
2018-07-24T01:17:12.943Z,19.50
2018-07-24T01:19:53.373Z,19.50
2018-07-24T01:22:34.185Z,19.50
2018-07-24T01:25:14.965Z,19.40
2018-07-24T01:27:56.152Z,19.40
2018-07-24T01:30:36.983Z,19.30
2018-07-24T01:33:18.097Z,19.30
2018-07-24T01:35:58.503Z,19.40
2018-07-24T01:41:19.701Z,19.30
2018-07-24T01:44:00.554Z,19.40
2018-07-24T01:46:41.041Z,19.30
2018-07-24T01:49:21.393Z,19.30
2018-07-24T01:52:02.216Z,19.30
2018-07-24T01:54:43.152Z,19.20
2018-07-24T01:57:24.367Z,19.10
2018-07-24T02:00:05.436Z,19.00
2018-07-24T02:02:45.867Z,19.00
2018-07-24T02:05:26.746Z,18.90
2018-07-24T02:08:07.239Z,18.90
2018-07-24T02:10:48.256Z,18.80
2018-07-24T02:13:29.156Z,18.70
2018-07-24T02:16:09.712Z,18.70
2018-07-24T02:18:50.642Z,18.60
2018-07-24T02:24:11.829Z,18.70
2018-07-24T02:26:52.702Z,18.70
2018-07-24T02:29:33.561Z,18.70
2018-07-24T02:32:14.177Z,18.70
2018-07-24T02:34:55.179Z,18.60
2018-07-24T02:37:36.163Z,18.50
2018-07-24T02:40:16.742Z,18.40
2018-07-24T02:42:57.613Z,18.40
2018-07-24T02:45:38.810Z,18.30
2018-07-24T02:48:19.145Z,18.30
2018-07-24T02:51:00.590Z,18.20
2018-07-24T02:53:41.399Z,18.20
2018-07-24T02:56:22.508Z,18.30
2018-07-24T02:59:04.266Z,18.30
2018-07-24T03:01:45.310Z,18.30
2018-07-24T03:04:26.523Z,18.30
2018-07-24T03:07:07.393Z,18.30
2018-07-24T03:09:48.221Z,18.30
2018-07-24T03:12:28.786Z,18.30
2018-07-24T03:15:09.429Z,18.30
2018-07-24T03:17:50.330Z,18.20
2018-07-24T03:20:31.102Z,18.10
2018-07-24T03:23:11.629Z,18.10
2018-07-24T03:25:52.143Z,18.00
2018-07-24T03:28:33.251Z,17.90
2018-07-24T03:31:14.061Z,17.90
2018-07-24T03:33:54.766Z,17.80
2018-07-24T03:36:35.988Z,17.90
2018-07-24T03:39:16.716Z,18.00
2018-07-24T03:41:57.422Z,18.10
2018-07-24T03:44:38.279Z,18.10
2018-07-24T03:47:19.218Z,18.10
2018-07-24T03:50:00.032Z,18.20
2018-07-24T03:52:40.947Z,18.20
2018-07-24T03:55:21.528Z,18.30
2018-07-24T03:58:02.464Z,18.30
2018-07-24T04:00:43.277Z,18.30
2018-07-24T04:03:23.806Z,18.30
2018-07-24T04:06:04.481Z,18.30
2018-07-24T04:08:45.129Z,18.30
2018-07-24T04:11:25.938Z,18.30
2018-07-24T04:14:06.463Z,18.30
2018-07-24T04:16:46.887Z,18.30
2018-07-24T04:19:28.111Z,18.40
2018-07-24T04:22:09.155Z,18.40
2018-07-24T04:24:49.576Z,18.40
2018-07-24T04:27:30.221Z,18.50
2018-07-24T04:30:11.018Z,18.50
2018-07-24T04:32:51.690Z,18.50
2018-07-24T04:35:32.657Z,18.60
2018-07-24T04:38:13.170Z,18.60
2018-07-24T04:40:53.749Z,18.70
2018-07-24T04:46:14.801Z,18.90
2018-07-24T04:48:55.545Z,19.00
2018-07-24T04:51:36.791Z,19.00
2018-07-24T04:54:17.665Z,19.10
2018-07-24T04:56:59.022Z,19.20
2018-07-24T04:59:40.081Z,19.20
2018-07-24T05:02:20.852Z,19.30
2018-07-24T05:05:01.549Z,19.40
2018-07-24T05:07:42.328Z,19.60
2018-07-24T05:10:23.618Z,19.70
2018-07-24T05:13:05.295Z,20.40
2018-07-24T05:15:47.047Z,20.90
2018-07-24T05:18:28.106Z,20.90
2018-07-24T05:21:09.034Z,20.90
2018-07-24T05:23:50.296Z,21.30
2018-07-24T05:26:31.795Z,21.40
2018-07-24T05:29:12.487Z,21.30
2018-07-24T05:31:53.233Z,21.10
2018-07-24T05:34:33.995Z,21.70
2018-07-24T05:37:14.806Z,22.40
2018-07-24T05:39:55.973Z,22.80
2018-07-24T05:42:36.878Z,22.70
2018-07-24T05:45:18.014Z,22.20
2018-07-24T05:47:58.503Z,22.10
2018-07-24T05:50:39.599Z,22.10
2018-07-24T05:53:20.666Z,22.50
2018-07-24T05:56:01.589Z,22.50
2018-07-24T05:58:42.370Z,22.70
2018-07-24T06:01:23.629Z,22.90
2018-07-24T06:06:45.482Z,23.10
2018-07-24T06:12:08.047Z,22.70
2018-07-24T06:14:49.055Z,22.70
2018-07-24T06:20:10.848Z,22.50
2018-07-24T06:22:51.383Z,22.60
2018-07-24T06:25:32.497Z,22.80
2018-07-24T06:28:13.062Z,22.80
2018-07-24T06:30:53.945Z,23.10
2018-07-24T06:33:34.670Z,23.10
2018-07-24T06:36:15.993Z,23.10
2018-07-24T06:38:56.564Z,23.20
2018-07-24T06:41:37.309Z,23.10
2018-07-24T06:44:18.058Z,23.10
2018-07-24T06:46:59.546Z,23.20
2018-07-24T06:49:40.825Z,23.20
2018-07-24T06:52:21.757Z,23.50
2018-07-24T06:55:02.494Z,23.80
2018-07-24T06:57:43.262Z,24.40
2018-07-24T07:00:24.382Z,24.70
2018-07-24T07:03:05.214Z,24.80
2018-07-24T07:05:46.384Z,25.00
2018-07-24T07:08:28.499Z,25.10
2018-07-24T07:11:09.433Z,25.10
2018-07-24T07:13:50.362Z,24.90
2018-07-24T07:16:31.106Z,24.60
2018-07-24T07:19:11.933Z,24.40
2018-07-24T07:21:52.612Z,24.40
2018-07-24T07:24:33.614Z,24.40
2018-07-24T07:27:14.425Z,24.60
2018-07-24T07:29:55.149Z,24.50
2018-07-24T07:32:36.286Z,24.50
2018-07-24T07:35:17.286Z,24.80
2018-07-24T07:37:58.447Z,25.10
2018-07-24T07:40:39.344Z,25.50
2018-07-24T07:43:19.897Z,25.70
2018-07-24T07:46:00.752Z,25.90
2018-07-24T07:48:41.350Z,26.10
2018-07-24T07:51:22.203Z,26.40
2018-07-24T07:54:03.202Z,26.60
2018-07-24T07:59:24.409Z,28.00
2018-07-24T08:02:05.241Z,28.90
2018-07-24T08:04:46.092Z,30.60
2018-07-24T08:07:27.205Z,32.50
2018-07-24T08:10:08.030Z,33.00
2018-07-24T08:12:48.867Z,34.30
2018-07-24T08:15:29.754Z,34.30
2018-07-24T08:18:10.589Z,34.70
2018-07-24T08:20:51.261Z,35.50
2018-07-24T08:23:32.922Z,36.20
2018-07-24T08:26:14.241Z,35.40
2018-07-24T08:28:54.729Z,35.20
2018-07-24T08:31:35.609Z,35.60
2018-07-24T08:34:16.483Z,35.90
2018-07-24T08:36:56.891Z,36.20
2018-07-24T08:39:37.729Z,36.10
2018-07-24T08:42:19.024Z,36.60
2018-07-24T08:45:00.101Z,36.40
2018-07-24T08:47:40.939Z,36.50
2018-07-24T08:53:08.073Z,36.50
2018-07-24T08:55:49.044Z,37.10
2018-07-24T08:58:29.714Z,37.10
2018-07-24T09:01:10.649Z,37.20
2018-07-24T09:03:51.429Z,36.30
2018-07-24T09:06:32.641Z,36.40
2018-07-24T09:09:13.674Z,37.30
2018-07-24T09:11:54.091Z,37.90
2018-07-24T09:14:35.280Z,37.80
2018-07-24T09:17:16.203Z,37.30
2018-07-24T09:19:56.704Z,37.80
2018-07-24T09:22:37.581Z,38.00
2018-07-24T09:25:18.101Z,37.80
2018-07-24T09:27:58.435Z,38.30
2018-07-24T09:30:39.319Z,38.80
2018-07-24T09:33:20.448Z,38.50
2018-07-24T09:36:01.806Z,36.10
2018-07-24T09:38:42.331Z,34.40
2018-07-24T09:41:23.353Z,33.10
2018-07-24T09:44:04.382Z,33.00
2018-07-24T09:46:45.270Z,33.60
2018-07-24T09:49:25.709Z,35.30
2018-07-24T09:52:06.790Z,36.60
2018-07-24T09:54:47.555Z,36.90
2018-07-24T09:57:28.148Z,37.70
2018-07-24T10:00:10.353Z,37.40
2018-07-24T10:02:50.856Z,36.90
2018-07-24T10:05:31.907Z,37.60
2018-07-24T10:08:12.547Z,38.40
2018-07-24T10:10:53.892Z,38.20
2018-07-24T10:13:34.703Z,38.70
2018-07-24T10:16:15.486Z,38.70
2018-07-24T10:18:56.921Z,39.00
2018-07-24T10:21:38.648Z,39.10
2018-07-24T10:24:19.137Z,39.00
2018-07-24T10:27:00.641Z,39.30
2018-07-24T10:29:41.025Z,40.60
2018-07-24T10:32:21.565Z,40.10
2018-07-24T10:35:03.384Z,40.20
2018-07-24T10:37:44.093Z,40.80
2018-07-24T10:40:24.691Z,40.10
2018-07-24T10:43:05.133Z,39.80
2018-07-24T10:45:46.986Z,39.70
2018-07-24T10:51:08.509Z,40.20
2018-07-24T10:53:49.397Z,39.70
2018-07-24T10:56:31.661Z,39.70
2018-07-24T11:01:53.275Z,39.60
2018-07-24T11:04:34.121Z,39.20
2018-07-24T11:07:14.767Z,39.90
2018-07-24T11:09:55.480Z,40.80
2018-07-24T11:12:36.602Z,40.30
2018-07-24T11:15:17.473Z,40.60
2018-07-24T11:17:58.466Z,40.20
2018-07-24T11:20:39.786Z,39.10
2018-07-24T11:23:20.435Z,39.10
2018-07-24T11:26:01.631Z,40.00
2018-07-24T11:28:42.599Z,40.20
2018-07-24T11:31:23.622Z,40.70
2018-07-24T11:34:04.449Z,40.30
2018-07-24T11:36:45.294Z,40.50
2018-07-24T11:39:25.981Z,40.50
2018-07-24T11:42:07.174Z,41.10
2018-07-24T11:44:47.911Z,41.20
2018-07-24T11:47:28.891Z,41.40
2018-07-24T11:50:09.777Z,39.60
2018-07-24T11:52:50.326Z,39.40
2018-07-24T11:55:30.984Z,39.40
2018-07-24T11:58:12.799Z,39.90
2018-07-24T12:00:54.041Z,38.70
2018-07-24T12:03:35.544Z,39.00
2018-07-24T12:06:16.873Z,39.30
2018-07-24T12:08:58.046Z,39.40
2018-07-24T12:11:38.635Z,39.30
2018-07-24T12:14:19.580Z,39.50
2018-07-24T12:17:00.505Z,39.20
2018-07-24T12:19:42.461Z,39.20
2018-07-24T12:22:24.480Z,39.40
2018-07-24T12:25:05.304Z,39.60
2018-07-24T12:27:46.520Z,39.60
2018-07-24T12:30:27.362Z,38.70
2018-07-24T12:33:07.905Z,39.20
2018-07-24T12:35:48.316Z,39.60
2018-07-24T12:38:28.972Z,40.20
2018-07-24T12:41:10.011Z,40.20
2018-07-24T12:43:50.842Z,39.50
2018-07-24T12:46:31.665Z,39.10
2018-07-24T12:49:12.646Z,39.40
2018-07-24T12:51:53.200Z,39.20
2018-07-24T12:54:34.091Z,39.50
2018-07-24T12:57:16.057Z,39.00
2018-07-24T12:59:56.874Z,38.40
2018-07-24T13:02:37.984Z,38.10
2018-07-24T13:05:19.148Z,38.40
2018-07-24T13:08:00.032Z,38.90
2018-07-24T13:10:40.637Z,38.60
2018-07-24T13:13:21.213Z,38.90
2018-07-24T13:16:01.903Z,38.90
2018-07-24T13:18:42.437Z,38.20
2018-07-24T13:21:23.225Z,38.80
2018-07-24T13:24:04.007Z,38.80
2018-07-24T13:29:26.149Z,38.30
2018-07-24T13:32:06.660Z,38.20
2018-07-24T13:34:47.530Z,38.60
2018-07-24T13:37:28.453Z,38.20
2018-07-24T13:40:09.908Z,37.80
2018-07-24T13:42:50.576Z,37.70
2018-07-24T13:45:31.127Z,37.90
2018-07-24T13:48:11.627Z,37.70
2018-07-24T13:50:52.301Z,37.50
2018-07-24T13:53:33.109Z,37.40
2018-07-24T13:56:13.524Z,37.40
2018-07-24T13:58:53.966Z,37.70
2018-07-24T14:01:36.972Z,37.90
2018-07-24T14:04:17.840Z,38.20
2018-07-24T14:06:58.729Z,38.30
2018-07-24T14:09:39.718Z,37.70
2018-07-24T14:12:20.568Z,37.30
2018-07-24T14:15:02.266Z,37.40
2018-07-24T14:17:43.278Z,37.40
2018-07-24T14:20:24.112Z,37.40
2018-07-24T14:23:05.528Z,37.00
2018-07-24T14:25:46.430Z,36.70
2018-07-24T14:28:27.637Z,36.50
2018-07-24T14:31:08.398Z,36.60
2018-07-24T14:33:49.334Z,36.40
2018-07-24T14:36:30.261Z,35.80
2018-07-24T14:39:12.763Z,36.50
2018-07-24T14:41:53.428Z,36.20
2018-07-24T14:44:34.365Z,36.00
2018-07-24T14:47:15.889Z,36.40
2018-07-24T14:49:56.343Z,36.10
2018-07-24T14:52:37.343Z,36.10
2018-07-24T14:55:18.330Z,35.80
2018-07-24T14:57:59.546Z,35.50
2018-07-24T15:00:40.334Z,35.70
2018-07-24T15:03:22.527Z,35.90
2018-07-24T15:06:03.729Z,35.60
2018-07-24T15:08:45.142Z,35.50
2018-07-24T15:11:26.125Z,34.80
2018-07-24T15:14:07.034Z,34.50
2018-07-24T15:16:48.776Z,34.60
2018-07-24T15:19:29.749Z,34.20
2018-07-24T15:22:10.906Z,33.90
2018-07-24T15:24:52.210Z,33.90
2018-07-24T15:27:33.445Z,33.90
2018-07-24T15:30:14.949Z,33.90
2018-07-24T15:32:55.874Z,33.70
2018-07-24T15:35:40.535Z,33.60
2018-07-24T15:38:22.098Z,33.70
2018-07-24T15:41:03.163Z,33.70
2018-07-24T15:43:45.141Z,33.70
2018-07-24T15:46:26.477Z,33.70
2018-07-24T15:49:07.233Z,33.70
2018-07-24T15:51:49.215Z,33.60
2018-07-24T15:54:29.979Z,33.60
2018-07-24T15:57:10.487Z,33.70
2018-07-24T15:59:51.907Z,33.70
2018-07-24T16:02:32.801Z,33.40
2018-07-24T16:05:13.799Z,33.30
2018-07-24T16:07:54.992Z,33.30
2018-07-24T16:10:35.746Z,33.10
2018-07-24T16:13:16.401Z,32.90
2018-07-24T16:15:57.360Z,32.90
2018-07-24T16:18:38.382Z,32.70
2018-07-24T16:21:19.938Z,32.60
2018-07-24T16:24:01.094Z,32.50
2018-07-24T16:26:42.487Z,32.40
2018-07-24T16:29:23.573Z,32.30
2018-07-24T16:32:04.589Z,32.20
2018-07-24T16:34:45.799Z,32.20
2018-07-24T16:37:26.955Z,32.10
2018-07-24T16:40:07.467Z,32.00
2018-07-24T16:42:48.817Z,32.00
2018-07-24T16:45:29.622Z,31.90
2018-07-24T16:48:10.500Z,31.90
2018-07-24T16:50:51.220Z,31.80
2018-07-24T16:53:32.083Z,31.80
2018-07-24T16:58:54.065Z,30.90
2018-07-24T17:01:34.775Z,31.50
2018-07-24T17:04:15.329Z,31.30
2018-07-24T17:06:56.333Z,31.30
2018-07-24T17:09:38.220Z,31.20
2018-07-24T17:12:19.424Z,31.20
2018-07-24T17:15:02.814Z,31.10
2018-07-24T17:17:43.349Z,30.90
2018-07-24T17:20:24.618Z,30.80
2018-07-24T17:23:05.361Z,30.60
2018-07-24T17:25:46.743Z,30.60
2018-07-24T17:28:27.642Z,30.60
2018-07-24T17:31:09.459Z,30.60
2018-07-24T17:33:50.205Z,30.50
2018-07-24T17:36:31.046Z,30.40
2018-07-24T17:39:12.395Z,30.30
2018-07-24T17:41:53.756Z,30.20
2018-07-24T17:44:34.718Z,30.20
2018-07-24T17:49:56.508Z,30.10
2018-07-24T17:52:37.820Z,30.10
2018-07-24T17:55:18.429Z,30.00
2018-07-24T18:00:39.242Z,29.90
2018-07-24T18:03:19.665Z,29.80
2018-07-24T18:06:00.554Z,29.70
2018-07-24T18:08:41.416Z,29.60
2018-07-24T18:11:22.228Z,29.60
2018-07-24T18:14:03.494Z,29.50
2018-07-24T18:16:44.326Z,29.40
2018-07-24T18:19:25.267Z,29.30
2018-07-24T18:22:06.187Z,29.20
2018-07-24T18:24:46.777Z,29.10
2018-07-24T18:27:27.620Z,29.10
2018-07-24T18:30:08.644Z,29.00
2018-07-24T18:32:49.399Z,28.90
2018-07-24T18:35:31.417Z,29.00
2018-07-24T18:38:11.990Z,28.90
2018-07-24T18:40:52.924Z,28.80
2018-07-24T18:43:33.594Z,28.70
2018-07-24T18:46:15.010Z,28.60
2018-07-24T18:48:55.546Z,28.60
2018-07-24T18:51:36.385Z,28.50
2018-07-24T18:54:17.939Z,28.40
2018-07-24T18:56:59.078Z,28.40
2018-07-24T18:59:39.993Z,28.30
2018-07-24T19:02:21.186Z,28.20
2018-07-24T19:05:02.199Z,28.10
2018-07-24T19:07:43.282Z,27.90
2018-07-24T19:10:24.619Z,27.90
2018-07-24T19:13:05.560Z,27.80
2018-07-24T19:18:26.821Z,27.70
2018-07-24T19:21:08.168Z,27.70
2018-07-24T19:23:49.146Z,27.50
2018-07-24T19:26:29.639Z,27.50
2018-07-24T19:29:10.634Z,27.40
2018-07-24T19:31:52.096Z,27.30
2018-07-24T19:34:32.979Z,27.30
2018-07-24T19:37:18.644Z,27.30
2018-07-24T19:39:59.462Z,27.30
2018-07-24T19:42:40.333Z,27.30
2018-07-24T19:45:21.086Z,27.20
2018-07-24T19:48:03.044Z,27.20
2018-07-24T19:50:44.794Z,27.20
2018-07-24T19:53:25.734Z,27.10
2018-07-24T19:56:06.885Z,27.00
2018-07-24T19:58:47.649Z,26.90
2018-07-24T20:01:28.791Z,26.80
2018-07-24T20:04:10.159Z,26.80
2018-07-24T20:06:51.984Z,26.80
2018-07-24T20:09:32.902Z,26.70
2018-07-24T20:12:13.726Z,26.70
2018-07-24T20:14:54.977Z,26.60
2018-07-24T20:17:36.168Z,26.60
2018-07-24T20:20:17.409Z,26.50
2018-07-24T20:22:59.419Z,26.40
2018-07-24T20:25:41.318Z,26.30
2018-07-24T20:28:22.211Z,26.20
2018-07-24T20:31:02.853Z,26.20
2018-07-24T20:33:43.285Z,26.20
2018-07-24T20:36:25.291Z,26.10
2018-07-24T20:39:10.504Z,26.00
2018-07-24T20:41:51.579Z,26.00
2018-07-24T20:44:32.330Z,25.90
2018-07-24T20:47:12.802Z,25.90
2018-07-24T20:49:54.023Z,25.80
2018-07-24T20:52:35.433Z,25.70
2018-07-24T20:55:16.476Z,25.70
2018-07-24T20:57:57.317Z,25.70
2018-07-24T21:00:38.184Z,25.70
2018-07-24T21:03:19.519Z,25.60
2018-07-24T21:06:00.411Z,25.60
2018-07-24T21:08:41.316Z,25.60
2018-07-24T21:11:22.426Z,25.60
2018-07-24T21:14:03.913Z,25.50
2018-07-24T21:16:44.359Z,25.50
2018-07-24T21:19:25.045Z,25.50
2018-07-24T21:22:05.885Z,25.60
2018-07-24T21:24:46.657Z,25.50
2018-07-24T21:27:27.825Z,25.50
2018-07-24T21:32:51.063Z,25.30
2018-07-24T21:35:32.277Z,25.20
2018-07-24T21:38:12.737Z,25.10
2018-07-24T21:40:53.540Z,25.00
2018-07-24T21:43:34.357Z,24.80
2018-07-24T21:46:15.148Z,24.80
2018-07-24T21:48:55.951Z,24.70
2018-07-24T21:51:36.541Z,24.60
2018-07-24T21:54:17.224Z,24.50
2018-07-24T21:56:58.059Z,24.40
2018-07-24T21:59:38.757Z,24.30
2018-07-24T22:02:20.032Z,24.20
2018-07-24T22:05:01.151Z,24.20
2018-07-24T22:07:42.052Z,24.10
2018-07-24T22:10:23.062Z,24.10
2018-07-24T22:13:04.145Z,24.00
2018-07-24T22:15:45.038Z,24.10
2018-07-24T22:18:25.986Z,24.10
2018-07-24T22:21:06.512Z,24.00
2018-07-24T22:23:47.141Z,24.00
2018-07-24T22:26:28.237Z,23.90
2018-07-24T22:29:09.099Z,23.80
2018-07-24T22:31:49.917Z,23.70
2018-07-24T22:34:30.355Z,23.60
2018-07-24T22:37:10.780Z,23.60
2018-07-24T22:39:51.689Z,23.50
2018-07-24T22:42:32.222Z,23.60
2018-07-24T22:45:13.707Z,23.60
2018-07-24T22:47:54.916Z,23.60
2018-07-24T22:50:36.013Z,23.40
2018-07-24T22:53:16.822Z,23.40
2018-07-24T22:55:57.320Z,23.30
2018-07-24T22:58:37.791Z,23.30
2018-07-24T23:01:18.685Z,23.20
2018-07-24T23:03:59.080Z,23.20
2018-07-24T23:06:39.482Z,23.20
2018-07-24T23:09:20.177Z,23.20
2018-07-24T23:12:01.259Z,23.10
2018-07-24T23:14:42.341Z,23.00
2018-07-24T23:17:22.711Z,22.90
2018-07-24T23:20:03.891Z,22.80
2018-07-24T23:22:44.793Z,22.80
2018-07-24T23:25:26.094Z,22.80
2018-07-24T23:28:07.781Z,22.70
2018-07-24T23:30:48.268Z,22.70
2018-07-24T23:33:28.713Z,22.60
2018-07-24T23:36:10.803Z,22.60
2018-07-24T23:38:51.711Z,22.60
2018-07-24T23:41:32.188Z,22.50
2018-07-24T23:44:13.096Z,22.50
2018-07-24T23:46:53.793Z,22.50
2018-07-24T23:49:34.416Z,22.50
2018-07-24T23:52:15.922Z,22.40
2018-07-24T23:54:56.840Z,22.50
2018-07-24T23:57:37.436Z,22.40
